ON, Ontario

4:55 PM MST on February 24, 2017 (GMT -0700)
Calgary International | | Change Station

Elev 3556 ft 51.12 °N, 114.02 °W | Updated 55 minutes ago

Mostly Cloudy
Mostly Cloudy
18 °F
Feels Like 5 °F
N
12
Wind Variable Wind from NE

Today
High -- | Low -- °F
--% Chance of Precip.
Yesterday
High -- | Low -- °F
Precip. -- in
Pressure 30.29 in
Visibility 15.0 miles
Clouds Mostly Cloudy 1800 ft
Mostly Cloudy 18000 ft
Windchill 5 °F
Dew Point 10 °F
Humidity 73%
Rainfall 0.00 in
Snow Depth Not available.
7:30 AM 6:08 PM
Waning Crescent, 3% visible
METAR CYYC 242300Z 04010KT 15SM BKN018 BKN180 M08/M12 A3007 RMK SC5AC1 SLP255
Pressure 30.29 in
Visibility 15.0 miles
Clouds Mostly Cloudy 1800 ft
Mostly Cloudy 18000 ft
Windchill 5 °F
Dew Point 10 °F
Humidity 73%
Rainfall 0.00 in
Snow Depth Not available.
7:30 AM 6:08 PM
Waning Crescent, 3% visible
METAR CYYC 242300Z 04010KT 15SM BKN018 BKN180 M08/M12 A3007 RMK SC5AC1 SLP255

Get Your Daily Forecast Email!

Thanks for signing up!

Be on the lookout for a verification email in your inbox.

You'll start receiving the daily forecast at 8 AM.

×

10-Day Weather Forecast

Almanac

Astronomy

Feb. 24, 2017 Rise Set
Actual Time
Civil Twilight
Nautical Twilight
Astronomical Twilight
Moon
Length of Visible Light
Length of Day
Tomorrow will be .
, % of the Moon is Illuminated

Today's Extremes

Country Highs Country Lows

Community

WunderPhotos

Upload Photos

1,962,540 photos uploaded!

WunderBlog® & News

Nearby

Air Quality

  Air Quality AQ Index Pollutant
Not available.

Snow Depth

Station Depth Elevation

Earthquake Activity

City Distance Mag. Time & Date
Minimum magnitude displayed is 2.5.

Coastal Water Temperatures

Place Temperature

Stations

Nearby Weather Stations

Station Location Temp. Windchill Dew Point Humidity Wind Precip. Elev Updated Type
                   

Watches & Warnings

There are currently no watches in effect.